Time;durP1;ratioP1;P1;durP2;ratioP2;P2;SDS_P1;SDS_P2;PMS_P1;PMS_P2;Temp;Humidity;BMP_temperature;BMP_pressure;BME280_temperature;BME280_humidity;BME280_pressure;Samples;Min_cycle;Max_cycle;Signal;HPM_P1;HPM_P2
2021/11/06 00:01:56;;;;;;;;;;;;;;;10.73;95.93;100189.34;5054958;28;838;-60
2021/11/06 00:04:23;;;;;;;;;;;;;;;10.73;96.57;100194.06;5054925;28;850;-60
2021/11/06 00:06:49;;;;;;;;;;;;;;;10.79;96.84;100192.50;5054952;28;825;-60
2021/11/06 00:09:15;;;;;;;;;;;;;;;10.74;96.31;100201.97;5054769;28;1945;-60
2021/11/06 00:11:42;;;;;;;;;;;;;;;10.72;96.33;100200.81;5054748;28;818;-60
2021/11/06 00:14:08;;;;;;;;;;;;;;;10.75;96.89;100214.63;5054709;28;834;-60
2021/11/06 00:16:34;;;;;;;;;;;;;;;10.76;96.88;100202.38;5054691;28;787;-60
2021/11/06 00:19:00;;;;;;;;;;;;;;;10.72;96.92;100198.81;5054738;28;1260;-60
2021/11/06 00:21:27;;;;;;;;;;;;;;;10.70;96.99;100201.19;5054561;28;834;-60
2021/11/06 00:23:53;;;;;;;;;;;;;;;10.63;96.25;100201.19;5054499;28;810;-60
2021/11/06 00:26:20;;;;;;;;;;;;;;;10.51;96.35;100198.78;5054509;28;874;-59
2021/11/06 00:28:47;;;;;;;;;;;;;;;10.42;96.53;100193.66;5054248;28;1971;-60
2021/11/06 00:31:13;;;;;;;;;;;;;;;10.33;96.65;100201.53;5054362;28;865;-60
2021/11/06 00:33:40;;;;;;;;;;;;;;;10.21;96.44;100183.31;5054353;28;791;-60
2021/11/06 00:36:06;;;;;;;;;;;;;;;10.06;96.23;100190.75;5054317;28;822;-60
2021/11/06 00:38:33;;;;;;;;;;;;;;;9.96;96.43;100184.03;5054483;28;849;-59
2021/11/06 00:40:59;;;;;;;;;;;;;;;9.86;96.46;100182.00;5054268;28;854;-60
2021/11/06 00:43:25;;;;;;;;;;;;;;;9.74;96.18;100193.41;5054171;28;810;-59
2021/11/06 00:45:52;;;;;;;;;;;;;;;9.68;96.39;100201.25;5054142;28;1139;-59
2021/11/06 00:48:19;;;;;;;;;;;;;;;9.65;96.71;100206.75;5054223;28;1886;-59
2021/11/06 00:50:46;;;;;;;;;;;;;;;9.62;96.79;100208.31;5054059;28;890;-59
2021/11/06 00:53:12;;;;;;;;;;;;;;;9.59;97.02;100198.06;5053934;28;790;-59
2021/11/06 00:55:39;;;;;;;;;;;;;;;9.56;97.46;100207.13;5054049;28;818;-59
2021/11/06 00:58:04;;;;;;;;;;;;;;;9.52;97.35;100211.81;5053756;28;830;-59
2021/11/06 01:00:31;;;;;;;;;;;;;;;9.45;97.33;100229.09;5054047;28;822;-59
2021/11/06 01:02:58;;;;;;;;;;;;;;;9.42;97.71;100226.34;5053891;28;830;-59
2021/11/06 01:05:25;;;;;;;;;;;;;;;9.39;97.57;100231.44;5053425;28;882;-59
2021/11/06 01:07:51;;;;;;;;;;;;;;;9.39;97.92;100233.41;5053055;28;1953;-59
2021/11/06 01:10:19;;;;;;;;;;;;;;;9.36;98.00;100234.94;5053904;28;854;-59
2021/11/06 01:12:45;;;;;;;;;;;;;;;9.29;97.38;100237.66;5053833;28;811;-59
2021/11/06 01:15:12;;;;;;;;;;;;;;;9.26;97.62;100241.22;5052484;28;1250;-59
2021/11/06 01:17:39;;;;;;;;;;;;;;;9.26;97.71;100237.63;5052460;28;952;-59
2021/11/06 01:20:06;;;;;;;;;;;;;;;9.25;97.97;100228.56;5053476;28;1209;-59
2021/11/06 01:22:33;;;;;;;;;;;;;;;9.28;97.80;100233.34;5053661;28;894;-59
2021/11/06 01:25:00;;;;;;;;;;;;;;;9.34;98.18;100237.31;5053644;28;810;-59
2021/11/06 01:27:27;;;;;;;;;;;;;;;9.42;98.44;100240.91;5053423;28;1968;-59
2021/11/06 01:29:53;;;;;;;;;;;;;;;9.48;98.56;100239.38;5054030;28;854;-59
2021/11/06 01:32:19;;;;;;;;;;;;;;;9.54;98.52;100242.56;5053592;28;771;-59
2021/11/06 01:34:47;;;;;;;;;;;;;;;9.54;98.26;100235.09;5051939;28;1203;-59
2021/11/06 01:37:13;;;;;;;;;;;;;;;9.51;98.01;100237.81;5053156;28;861;-59
2021/11/06 01:39:40;;;;;;;;;;;;;;;9.50;98.17;100242.53;5053071;28;870;-59
2021/11/06 01:42:07;;;;;;;;;;;;;;;9.49;98.28;100238.19;5053254;28;885;-59
2021/11/06 01:44:34;;;;;;;;;;;;;;;9.48;98.10;100231.09;5053062;28;853;-59
2021/11/06 01:47:00;;;;;;;;;;;;;;;9.48;98.49;100236.63;5052976;28;803;-59
2021/11/06 01:49:26;;;;;;;;;;;;;;;9.46;98.27;100240.94;5052863;28;1973;-58
2021/11/06 01:51:53;;;;;;;;;;;;;;;9.42;98.14;100235.41;5053049;28;885;-58
2021/11/06 01:54:25;;;;;;;;;;;;;;;9.40;98.27;100232.22;5052769;28;912;-58
2021/11/06 01:56:54;;;;;;;;;;;;;;;9.39;98.30;100242.47;5052929;28;865;-57
2021/11/06 01:59:22;;;;;;;;;;;;;;;9.35;98.16;100252.69;5052671;28;798;-57
2021/11/06 02:01:53;;;;;;;;;;;;;;;9.32;98.04;100247.13;5052829;28;858;-56
2021/11/06 02:04:56;;;;;;;;;;;;;;;9.27;98.08;100248.28;5052569;28;827;-57
2021/11/06 02:10:42;;;;;;;;;;;;;;;9.11;98.11;100247.75;5047128;28;1119;-58
2021/11/06 02:13:14;;;;;;;;;;;;;;;9.03;97.89;100254.41;5052480;28;811;-58
2021/11/06 02:15:41;;;;;;;;;;;;;;;8.97;97.85;100257.50;5052674;28;799;-58
2021/11/06 02:18:23;;;;;;;;;;;;;;;8.92;97.97;100257.88;5033998;28;976;-58
2021/11/06 02:21:02;;;;;;;;;;;;;;;8.87;98.20;100252.69;5052411;28;822;-58
2021/11/06 02:23:33;;;;;;;;;;;;;;;8.82;98.14;100255.78;5052223;28;1156;-58
2021/11/06 02:26:00;;;;;;;;;;;;;;;8.76;98.16;100258.09;5052230;28;881;-60
2021/11/06 02:28:28;;;;;;;;;;;;;;;8.72;97.94;100257.25;5034120;28;1918;-58
2021/11/06 02:30:55;;;;;;;;;;;;;;;8.69;98.07;100263.53;5052156;28;826;-58
2021/11/06 02:33:22;;;;;;;;;;;;;;;8.67;98.01;100265.88;5052065;28;846;-58
2021/11/06 02:35:49;;;;;;;;;;;;;;;8.67;98.04;100270.63;5050837;28;1215;-58
2021/11/06 02:38:16;;;;;;;;;;;;;;;8.66;98.17;100275.31;5052019;28;798;-58
2021/11/06 02:40:43;;;;;;;;;;;;;;;8.65;98.00;100286.72;5051904;28;895;-59
2021/11/06 02:43:10;;;;;;;;;;;;;;;8.63;98.27;100286.31;5052174;28;803;-59
2021/11/06 02:45:37;;;;;;;;;;;;;;;8.63;98.31;100289.06;5051888;28;846;-59
2021/11/06 02:48:05;;;;;;;;;;;;;;;8.59;98.22;100286.28;5051841;28;1890;-59
2021/11/06 02:50:32;;;;;;;;;;;;;;;8.58;97.86;100291.00;5051816;28;822;-59
2021/11/06 02:52:59;;;;;;;;;;;;;;;8.56;98.23;100290.56;5051879;28;819;-59
2021/11/06 02:55:26;;;;;;;;;;;;;;;8.58;98.36;100302.00;5050354;28;1239;-59
2021/11/06 02:57:52;;;;;;;;;;;;;;;8.57;98.19;100297.66;5051781;28;846;-59
2021/11/06 03:00:19;;;;;;;;;;;;;;;8.56;98.25;100311.84;5051599;28;787;-59
2021/11/06 03:02:46;;;;;;;;;;;;;;;8.56;98.46;100300.81;5051964;28;827;-58
2021/11/06 03:05:14;;;;;;;;;;;;;;;8.53;98.35;100296.81;5051585;28;842;-58
2021/11/06 03:07:42;;;;;;;;;;;;;;;8.52;98.40;100309.03;5051514;28;1890;-58
2021/11/06 03:10:09;;;;;;;;;;;;;;;8.54;98.28;100308.66;5033654;28;1354;-58
2021/11/06 03:12:36;;;;;;;;;;;;;;;8.52;98.20;100317.28;5033590;28;1292;-58
2021/11/06 03:15:04;;;;;;;;;;;;;;;8.52;98.60;100309.03;5051547;28;866;-59
2021/11/06 03:17:31;;;;;;;;;;;;;;;8.52;98.53;100322.00;5051453;28;907;-58
2021/11/06 03:19:58;;;;;;;;;;;;;;;8.50;98.87;100311.34;5051269;28;1197;-58
2021/11/06 03:22:25;;;;;;;;;;;;;;;8.49;98.55;100312.53;5051321;28;854;-58
2021/11/06 03:24:52;;;;;;;;;;;;;;;8.45;98.60;100305.38;5051628;28;861;-58
2021/11/06 03:27:19;;;;;;;;;;;;;;;8.42;98.39;100309.69;5050195;28;2244;-58
2021/11/06 03:29:46;;;;;;;;;;;;;;;8.39;98.35;100324.97;5052755;28;901;-58
2021/11/06 03:32:13;;;;;;;;;;;;;;;8.39;98.73;100332.47;5055535;28;866;-58
2021/11/06 03:34:40;;;;;;;;;;;;;;;8.38;98.87;100331.66;5055563;28;815;-58
2021/11/06 03:37:07;;;;;;;;;;;;;;;8.37;98.79;100338.34;5055385;28;860;-58
2021/11/06 03:39:35;;;;;;;;;;;;;;;8.36;98.58;100346.97;5055370;28;906;-58
2021/11/06 03:42:02;;;;;;;;;;;;;;;8.34;98.89;100344.59;5055434;28;809;-58
2021/11/06 03:44:29;;;;;;;;;;;;;;;8.33;99.17;100344.97;5055226;28;833;-59
2021/11/06 03:46:56;;;;;;;;;;;;;;;8.32;99.15;100355.19;5055273;28;806;-58
2021/11/06 03:49:23;;;;;;;;;;;;;;;8.32;99.29;100357.94;5053821;28;1918;-58
2021/11/06 03:51:50;;;;;;;;;;;;;;;8.29;99.26;100347.66;5055182;28;873;-59
2021/11/06 03:54:16;;;;;;;;;;;;;;;8.26;98.80;100348.44;5055123;28;870;-58
2021/11/06 03:56:43;;;;;;;;;;;;;;;8.25;99.07;100357.84;5055001;28;819;-59
2021/11/06 03:59:11;;;;;;;;;;;;;;;8.23;99.19;100360.16;5054988;28;1012;-58
2021/11/06 04:01:38;;;;;;;;;;;;;;;8.22;99.26;100361.34;5053680;28;877;-58
2021/11/06 04:04:05;;;;;;;;;;;;;;;8.18;99.09;100366.00;5054942;28;830;-59
2021/11/06 04:06:32;;;;;;;;;;;;;;;8.15;99.11;100362.06;5054817;28;806;-58
2021/11/06 04:08:59;;;;;;;;;;;;;;;8.12;99.16;100365.53;5054820;28;1898;-58
2021/11/06 04:11:26;;;;;;;;;;;;;;;8.13;99.23;100358.09;5053496;28;1159;-58
2021/11/06 04:13:53;;;;;;;;;;;;;;;8.14;99.10;100356.91;5054736;28;865;-58
2021/11/06 04:16:20;;;;;;;;;;;;;;;8.15;99.33;100362.06;5054666;28;978;-58
2021/11/06 04:18:47;;;;;;;;;;;;;;;8.12;99.11;100356.47;5054731;28;1274;-58
2021/11/06 04:21:14;;;;;;;;;;;;;;;8.12;99.24;100364.75;5054620;28;851;-59
2021/11/06 04:23:41;;;;;;;;;;;;;;;8.12;99.11;100368.28;5054588;28;830;-59
2021/11/06 04:26:09;;;;;;;;;;;;;;;8.10;98.87;100365.09;5054354;28;905;-59
2021/11/06 04:28:36;;;;;;;;;;;;;;;8.08;99.16;100363.91;5054420;28;1996;-59
2021/11/06 04:31:03;;;;;;;;;;;;;;;8.08;99.37;100358.38;5036435;28;1390;-59
2021/11/06 04:33:30;;;;;;;;;;;;;;;8.06;99.22;100360.72;5054400;28;897;-59
2021/11/06 04:35:57;;;;;;;;;;;;;;;8.02;99.26;100357.91;5054370;28;866;-59
2021/11/06 04:38:24;;;;;;;;;;;;;;;8.02;98.68;100355.16;5054246;28;819;-59
2021/11/06 04:40:51;;;;;;;;;;;;;;;8.02;98.91;100360.66;5054007;28;865;-59
2021/11/06 04:43:18;;;;;;;;;;;;;;;8.01;98.99;100366.56;5054162;28;866;-59
2021/11/06 04:45:45;;;;;;;;;;;;;;;7.99;98.72;100369.69;5054111;28;783;-59
2021/11/06 04:48:12;;;;;;;;;;;;;;;7.99;99.02;100375.19;5054044;28;1895;-59
2021/11/06 04:50:39;;;;;;;;;;;;;;;7.97;98.98;100375.53;5054058;28;870;-59
2021/11/06 04:53:05;;;;;;;;;;;;;;;7.97;99.10;100378.28;5053979;28;838;-59
2021/11/06 04:55:32;;;;;;;;;;;;;;;7.96;99.04;100379.47;5053880;28;881;-59
2021/11/06 04:57:59;;;;;;;;;;;;;;;7.96;98.77;100379.47;5053921;28;799;-59
2021/11/06 05:00:26;;;;;;;;;;;;;;;8.02;99.18;100392.91;5053873;28;941;-59
2021/11/06 05:02:53;;;;;;;;;;;;;;;8.05;99.28;100397.69;5052550;28;1278;-59
2021/11/06 05:05:20;;;;;;;;;;;;;;;8.11;99.08;100387.94;5053716;28;881;-59
2021/11/06 05:07:47;;;;;;;;;;;;;;;8.17;99.23;100400.22;5053846;28;1977;-59
2021/11/06 05:10:14;;;;;;;;;;;;;;;8.21;99.34;100397.50;5053657;28;874;-59
2021/11/06 05:24:16;;;;;;;;;;;;;;;8.57;99.63;100420.84;5052756;28;1541;-55
2021/11/06 05:26:43;;;;;;;;;;;;;;;8.61;99.25;100421.69;5053680;28;873;-54
2021/11/06 05:29:10;;;;;;;;;;;;;;;8.63;99.21;100421.34;5053694;28;1914;-55
2021/11/06 05:31:38;;;;;;;;;;;;;;;8.68;99.42;100421.78;5053361;28;880;-53
2021/11/06 05:34:05;;;;;;;;;;;;;;;8.78;99.35;100425.84;5035381;28;1612;-56
2021/11/06 05:36:32;;;;;;;;;;;;;;;8.88;99.87;100425.19;5053231;28;849;-55
2021/11/06 05:38:59;;;;;;;;;;;;;;;9.03;100.00;100428.91;5053124;28;950;-55
2021/11/06 05:41:26;;;;;;;;;;;;;;;9.15;100.00;100434.19;5053170;28;802;-56
2021/11/06 05:43:53;;;;;;;;;;;;;;;9.24;100.00;100431.13;5053171;28;853;-55
2021/11/06 05:46:20;;;;;;;;;;;;;;;9.32;100.00;100437.47;5052892;28;896;-56
2021/11/06 05:48:47;;;;;;;;;;;;;;;9.40;100.00;100445.44;5052886;28;1921;-56
2021/11/06 05:51:14;;;;;;;;;;;;;;;9.47;100.00;100436.44;5052977;28;834;-56
2021/11/06 05:53:41;;;;;;;;;;;;;;;9.61;100.00;100435.81;5052191;28;818;-56
2021/11/06 05:56:08;;;;;;;;;;;;;;;9.88;100.00;100432.84;5052854;28;929;-57
2021/11/06 05:58:35;;;;;;;;;;;;;;;10.21;100.00;100434.69;5051704;28;806;-57
2021/11/06 06:01:02;;;;;;;;;;;;;;;10.50;100.00;100451.50;5052780;28;826;-57
2021/11/06 06:03:29;;;;;;;;;;;;;;;10.66;99.88;100463.00;5052581;28;933;-57
2021/11/06 06:05:56;;;;;;;;;;;;;;;10.80;99.46;100471.38;5034694;28;1307;-58
2021/11/06 06:08:24;;;;;;;;;;;;;;;10.90;98.95;100475.38;5052527;28;1890;-57
2021/11/06 06:10:51;;;;;;;;;;;;;;;11.03;98.30;100471.09;5052358;28;894;-57
2021/11/06 06:13:20;;;;;;;;;;;;;;;11.30;98.26;100481.84;5051276;28;846;-57
2021/11/06 06:15:46;;;;;;;;;;;;;;;11.65;97.71;100478.38;5052450;28;874;-58
2021/11/06 06:18:13;;;;;;;;;;;;;;;12.09;97.68;100476.44;5052427;28;1061;-57
2021/11/06 06:20:39;;;;;;;;;;;;;;;12.42;96.42;100477.22;5051122;28;858;-58
2021/11/06 06:23:06;;;;;;;;;;;;;;;12.66;94.38;100476.34;5051964;28;1249;-58
2021/11/06 06:25:32;;;;;;;;;;;;;;;12.79;93.55;100475.94;5052310;28;838;-58
2021/11/06 06:27:59;;;;;;;;;;;;;;;13.01;92.62;100487.72;5052145;28;1918;-58
2021/11/06 06:30:26;;;;;;;;;;;;;;;13.04;91.84;100481.41;5052151;28;874;-59
2021/11/06 06:32:52;;;;;;;;;;;;;;;13.06;91.28;100482.56;5052352;28;881;-59
2021/11/06 06:35:19;;;;;;;;;;;;;;;13.21;91.55;100488.84;5052480;28;798;-59
2021/11/06 06:37:46;;;;;;;;;;;;;;;13.54;91.60;100491.47;5034084;28;1292;-60
2021/11/06 06:40:13;;;;;;;;;;;;;;;13.92;91.12;100491.63;5052005;28;802;-60
2021/11/06 06:42:40;;;;;;;;;;;;;;;14.28;88.06;100487.34;5051977;28;795;-60
2021/11/06 06:45:07;;;;;;;;;;;;;;;14.66;89.43;100492.97;5051972;28;893;-59
2021/11/06 06:47:33;;;;;;;;;;;;;;;15.13;89.15;100491.63;5051743;28;1953;-59
2021/11/06 06:49:59;;;;;;;;;;;;;;;15.33;85.53;100486.97;5051872;28;822;-60
2021/11/06 06:52:26;;;;;;;;;;;;;;;15.31;83.88;100494.97;5051818;28;872;-60
2021/11/06 06:54:53;;;;;;;;;;;;;;;14.89;81.83;100495.09;5051983;28;826;-60
2021/11/06 06:57:19;;;;;;;;;;;;;;;14.52;82.72;100489.50;5051803;28;857;-61
2021/11/06 06:59:46;;;;;;;;;;;;;;;14.55;82.78;100492.28;5051722;28;873;-61
2021/11/06 07:02:14;;;;;;;;;;;;;;;14.77;81.94;100490.06;5052053;28;825;-60
2021/11/06 07:04:41;;;;;;;;;;;;;;;14.84;81.13;100480.84;5051629;28;810;-61
2021/11/06 07:07:07;;;;;;;;;;;;;;;14.86;79.98;100487.56;5051563;28;860;-61
2021/11/06 07:09:34;;;;;;;;;;;;;;;14.82;79.68;100492.38;5051592;28;1886;-62
2021/11/06 07:12:00;;;;;;;;;;;;;;;14.63;79.20;100479.06;5051598;28;817;-62
2021/11/06 07:14:27;;;;;;;;;;;;;;;14.61;79.10;100485.03;5051810;28;885;-61
2021/11/06 07:16:54;;;;;;;;;;;;;;;14.59;78.63;100495.00;5051582;28;853;-60
2021/11/06 07:19:20;;;;;;;;;;;;;;;14.64;78.28;100489.03;5052166;28;945;-62
2021/11/06 07:21:47;;;;;;;;;;;;;;;14.86;78.50;100497.91;5051700;28;854;-61
2021/11/06 07:24:13;;;;;;;;;;;;;;;15.14;78.06;100504.34;5051479;28;1281;-61
2021/11/06 07:26:39;;;;;;;;;;;;;;;15.50;75.13;100496.31;5051860;28;814;-61
2021/11/06 07:29:05;;;;;;;;;;;;;;;15.88;75.38;100493.38;5051115;28;1963;-62
2021/11/06 07:31:32;;;;;;;;;;;;;;;16.27;72.79;100486.38;5051426;28;877;-60
2021/11/06 07:33:59;;;;;;;;;;;;;;;16.42;72.59;100481.31;5051430;28;806;-61
2021/11/06 07:36:26;;;;;;;;;;;;;;;16.94;73.06;100483.53;5051281;28;818;-62
2021/11/06 07:38:53;;;;;;;;;;;;;;;17.96;68.95;100489.28;5051614;28;846;-60
2021/11/06 07:41:20;;;;;;;;;;;;;;;18.99;64.92;100462.63;5051324;28;842;-61
2021/11/06 07:43:47;;;;;;;;;;;;;;;19.71;62.87;100464.03;5051243;28;857;-61
2021/11/06 07:46:14;;;;;;;;;;;;;;;20.21;60.46;100452.41;5033285;28;1388;-61
2021/11/06 07:48:41;;;;;;;;;;;;;;;20.51;59.56;100450.97;5051331;28;1886;-62
2021/11/06 07:51:08;;;;;;;;;;;;;;;20.73;58.60;100442.56;5051135;28;802;-61
2021/11/06 07:53:34;;;;;;;;;;;;;;;20.86;57.09;100443.28;5051234;28;865;-60
2021/11/06 07:56:01;;;;;;;;;;;;;;;20.86;56.21;100431.25;5051195;28;798;-61
2021/11/06 07:58:28;;;;;;;;;;;;;;;20.74;56.55;100438.50;5051048;28;959;-61
2021/11/06 08:00:57;;;;;;;;;;;;;;;20.67;55.75;100425.50;5051154;28;862;-60
2021/11/06 08:03:24;;;;;;;;;;;;;;;20.64;56.83;100426.44;5051065;28;836;-60
2021/11/06 08:05:50;;;;;;;;;;;;;;;20.76;55.67;100439.63;5051018;28;862;-61
2021/11/06 08:08:17;;;;;;;;;;;;;;;20.87;56.36;100430.81;5051228;28;1881;-61
2021/11/06 08:10:43;;;;;;;;;;;;;;;20.96;55.86;100430.84;5050985;28;842;-60
2021/11/06 08:13:12;;;;;;;;;;;;;;;20.92;54.91;100440.66;5050902;28;822;-60
2021/11/06 08:15:46;;;;;;;;;;;;;;;20.91;55.68;100436.28;5051911;28;850;-61
2021/11/06 08:21:15;;;;;;;;;;;;;;;20.80;54.89;100445.91;5054966;28;687;-60
2021/11/06 08:23:41;;;;;;;;;;;;;;;20.81;55.19;100441.06;5054444;28;1464;-60
2021/11/06 08:38:19;;;;;;;;;;;;;;;20.59;54.99;100463.53;5054639;28;706;-60
2021/11/06 08:40:45;;;;;;;;;;;;;;;20.59;54.88;100455.13;5054410;28;913;-60
2021/11/06 08:43:12;;;;;;;;;;;;;;;20.55;55.45;100474.84;5054378;28;798;-60
2021/11/06 08:45:38;;;;;;;;;;;;;;;20.57;54.62;100480.84;5054092;28;838;-60
2021/11/06 08:48:06;;;;;;;;;;;;;;;20.51;54.43;100465.78;5054262;28;1894;-60
